createdAt,value
2018-03-22T00:00:09.895Z,-0.86
2018-03-22T00:01:09.810Z,-0.87
2018-03-22T00:02:09.725Z,-0.84
2018-03-22T00:03:09.640Z,-0.76
2018-03-22T00:04:09.559Z,-0.86
2018-03-22T00:05:09.468Z,-0.66
2018-03-22T00:06:09.383Z,-0.69
2018-03-22T00:07:09.297Z,-0.68
2018-03-22T00:08:09.212Z,-0.69
2018-03-22T00:09:09.125Z,-0.68
2018-03-22T00:10:09.040Z,-0.84
2018-03-22T00:11:08.955Z,-0.79
2018-03-22T00:12:08.872Z,-0.80
2018-03-22T00:13:08.787Z,-0.68
2018-03-22T00:14:08.702Z,-0.69
2018-03-22T00:15:08.613Z,-0.66
2018-03-22T00:16:08.527Z,-0.76
2018-03-22T00:17:08.441Z,-0.76
2018-03-22T00:18:08.356Z,-0.68
2018-03-22T00:19:08.271Z,-0.69
2018-03-22T00:20:08.184Z,-0.65
2018-03-22T00:21:08.099Z,-0.62
2018-03-22T00:22:08.014Z,-0.66
2018-03-22T00:23:07.929Z,-0.71
2018-03-22T00:24:07.843Z,-0.74
2018-03-22T00:25:07.758Z,-0.82
2018-03-22T00:26:07.672Z,-0.84
2018-03-22T00:27:07.586Z,-0.90
2018-03-22T00:28:07.499Z,-0.79
2018-03-22T00:29:07.414Z,-0.77
2018-03-22T00:30:07.329Z,-0.82
2018-03-22T00:31:07.244Z,-0.90
2018-03-22T00:32:07.163Z,-0.87
2018-03-22T00:33:07.072Z,-0.86
2018-03-22T00:34:06.987Z,-1.13
2018-03-22T00:35:06.900Z,-1.01
2018-03-22T00:36:06.819Z,-1.11
2018-03-22T00:37:06.729Z,-1.03
2018-03-22T00:38:06.643Z,-1.05
2018-03-22T00:39:06.560Z,-1.05
2018-03-22T00:40:06.472Z,-1.03
2018-03-22T00:41:06.386Z,-1.13
2018-03-22T00:42:06.299Z,-0.99
2018-03-22T00:43:06.215Z,-0.98
2018-03-22T00:44:06.128Z,-0.91
2018-03-22T00:45:06.042Z,-0.98
2018-03-22T00:46:05.957Z,-0.83
2018-03-22T00:47:05.872Z,-0.91
2018-03-22T00:48:05.785Z,-0.83
2018-03-22T00:49:05.700Z,-0.79
2018-03-22T00:50:05.617Z,-0.91
2018-03-22T00:51:05.529Z,-0.91
2018-03-22T00:52:05.444Z,-0.90
2018-03-22T00:53:05.357Z,-0.91
2018-03-22T00:54:05.272Z,-0.90
2018-03-22T00:55:05.186Z,-0.91
2018-03-22T00:56:05.101Z,-0.91
2018-03-22T00:57:05.014Z,-0.84
2018-03-22T00:58:04.928Z,-0.93
2018-03-22T00:59:04.842Z,-0.87
2018-03-22T01:00:04.759Z,-0.87
2018-03-22T01:01:04.670Z,-0.86
2018-03-22T01:02:04.585Z,-0.91
2018-03-22T01:03:04.500Z,-0.91
2018-03-22T01:04:04.413Z,-0.93
2018-03-22T01:05:04.328Z,-0.86
2018-03-22T01:06:04.243Z,-0.96
2018-03-22T01:07:04.157Z,-1.08
2018-03-22T01:08:04.070Z,-1.13
2018-03-22T01:09:03.985Z,-1.13
2018-03-22T01:10:03.898Z,-1.14
2018-03-22T01:11:03.817Z,-1.23
2018-03-22T01:12:03.726Z,-1.17
2018-03-22T01:13:03.641Z,-1.11
2018-03-22T01:14:03.555Z,-1.14
2018-03-22T01:15:03.473Z,-1.11
2018-03-22T01:16:03.383Z,-1.08
2018-03-22T01:17:03.298Z,-1.14
2018-03-22T01:18:03.212Z,-1.11
2018-03-22T01:19:03.128Z,-1.05
2018-03-22T01:20:03.041Z,-1.09
2018-03-22T01:21:02.954Z,-1.09
2018-03-22T01:22:02.880Z,-1.09
2018-03-22T01:23:02.781Z,-1.08
2018-03-22T01:24:02.697Z,-1.11
2018-03-22T01:25:02.610Z,-1.11
2018-03-22T01:26:02.524Z,-1.09
2018-03-22T01:27:02.440Z,-1.08
2018-03-22T01:28:02.352Z,-1.13
2018-03-22T01:29:02.268Z,-1.02
2018-03-22T01:30:02.180Z,-1.01
2018-03-22T01:31:02.096Z,-0.98
2018-03-22T01:32:02.009Z,-1.01
2018-03-22T01:33:01.923Z,-0.90
2018-03-22T01:34:01.837Z,-0.95
2018-03-22T01:35:01.750Z,-0.84
2018-03-22T01:36:01.664Z,-0.99
2018-03-22T01:37:01.577Z,-0.90
2018-03-22T01:38:01.492Z,-0.87
2018-03-22T01:39:01.412Z,-0.96
2018-03-22T01:40:01.321Z,-0.83
2018-03-22T01:41:01.243Z,-0.91
2018-03-22T01:42:01.154Z,-0.91
2018-03-22T01:43:01.062Z,-0.95
2018-03-22T01:44:00.977Z,-0.91
2018-03-22T01:45:00.891Z,-0.84
2018-03-22T01:46:00.810Z,-0.79
2018-03-22T01:47:00.719Z,-0.80
2018-03-22T01:48:00.633Z,-0.80
2018-03-22T01:49:00.547Z,-0.83
2018-03-22T01:50:00.463Z,-0.66
2018-03-22T01:51:00.376Z,-0.72
2018-03-22T01:52:00.289Z,-0.79
2018-03-22T01:53:00.204Z,-0.69
2018-03-22T01:54:00.122Z,-0.66
2018-03-22T01:55:00.033Z,-0.64
2018-03-22T01:55:59.946Z,-0.71
2018-03-22T01:56:59.861Z,-0.61
2018-03-22T01:57:59.777Z,-0.46
2018-03-22T01:58:59.689Z,-0.53
2018-03-22T01:59:59.603Z,-0.54
2018-03-22T02:00:59.517Z,-0.48
2018-03-22T02:01:59.432Z,-0.51
2018-03-22T02:02:59.344Z,-0.56
2018-03-22T02:03:59.259Z,-0.59
2018-03-22T02:04:59.174Z,-0.58
2018-03-22T02:05:59.089Z,-0.61
2018-03-22T02:06:59.005Z,-0.65
2018-03-22T02:07:58.916Z,-0.61
2018-03-22T02:08:58.830Z,-0.68
2018-03-22T02:09:58.746Z,-0.69
2018-03-22T02:10:58.660Z,-0.72
2018-03-22T02:11:58.573Z,-0.71
2018-03-22T02:12:58.488Z,-0.66
2018-03-22T02:13:58.401Z,-0.65
2018-03-22T02:14:58.316Z,-0.59
2018-03-22T02:15:58.231Z,-0.59
2018-03-22T02:16:58.145Z,-0.61
2018-03-22T02:17:58.059Z,-0.58
2018-03-22T02:18:57.974Z,-0.61
2018-03-22T02:19:57.887Z,-0.64
2018-03-22T02:20:57.802Z,-0.65
2018-03-22T02:21:57.716Z,-0.62
2018-03-22T02:22:57.630Z,-0.61
2018-03-22T02:23:57.544Z,-0.61
2018-03-22T02:24:57.459Z,-0.65
2018-03-22T02:25:57.373Z,-0.61
2018-03-22T02:26:57.288Z,-0.62
2018-03-22T02:27:57.201Z,-0.53
2018-03-22T02:28:57.119Z,-0.54
2018-03-22T02:29:57.034Z,-0.53
2018-03-22T02:30:56.946Z,-0.58
2018-03-22T02:31:56.862Z,-0.64
2018-03-22T02:32:56.773Z,-0.64
2018-03-22T02:33:56.690Z,-0.61
2018-03-22T02:34:56.603Z,-0.56
2018-03-22T02:35:56.517Z,-0.62
2018-03-22T02:36:56.468Z,-0.58
2018-03-22T02:37:56.350Z,-0.53
2018-03-22T02:38:56.261Z,-0.43
2018-03-22T02:39:56.174Z,-0.40
2018-03-22T02:40:56.089Z,-0.40
2018-03-22T02:41:56.002Z,-0.40
2018-03-22T02:42:55.917Z,-0.40
2018-03-22T02:43:55.831Z,-0.35
2018-03-22T02:44:55.745Z,-0.43
2018-03-22T02:45:55.663Z,-0.26
2018-03-22T02:46:55.576Z,-0.29
2018-03-22T02:47:55.489Z,-0.20
2018-03-22T02:48:55.408Z,-0.29
2018-03-22T02:49:55.318Z,-0.30
2018-03-22T02:50:55.235Z,-0.10
2018-03-22T02:51:55.148Z,-0.02
2018-03-22T02:52:55.062Z,0.21
2018-03-22T02:53:54.977Z,0.50
2018-03-22T02:54:54.892Z,0.65
2018-03-22T02:55:54.805Z,0.53
2018-03-22T02:56:54.719Z,0.29
2018-03-22T02:57:54.635Z,0.29
2018-03-22T02:58:54.551Z,0.29
2018-03-22T02:59:54.464Z,0.31
2018-03-22T03:00:54.378Z,0.42
2018-03-22T03:01:54.297Z,0.57
2018-03-22T03:02:54.214Z,0.66
2018-03-22T03:03:54.123Z,0.52
2018-03-22T03:04:54.038Z,0.56
2018-03-22T03:05:53.952Z,0.62
2018-03-22T03:06:53.874Z,0.69
2018-03-22T03:07:53.782Z,0.93
2018-03-22T03:08:53.738Z,0.90
2018-03-22T03:09:53.612Z,0.93
2018-03-22T03:10:53.526Z,1.01
2018-03-22T03:11:53.441Z,1.04
2018-03-22T03:12:53.356Z,1.15
2018-03-22T03:13:53.269Z,1.16
2018-03-22T03:14:53.186Z,1.11
2018-03-22T03:15:53.099Z,1.15
2018-03-22T03:16:53.015Z,1.25
2018-03-22T03:17:52.930Z,1.32
2018-03-22T03:18:52.846Z,1.44
2018-03-22T03:19:52.759Z,1.48
2018-03-22T03:20:52.676Z,1.64
2018-03-22T03:21:52.590Z,1.69
2018-03-22T03:22:52.505Z,1.68
2018-03-22T03:23:52.420Z,1.79
2018-03-22T03:24:52.334Z,1.77
2018-03-22T03:25:52.251Z,1.76
2018-03-22T03:26:52.167Z,1.80
2018-03-22T03:27:52.081Z,1.68
2018-03-22T03:28:51.997Z,1.61
2018-03-22T03:29:51.911Z,1.68
2018-03-22T03:30:51.836Z,1.61
2018-03-22T03:31:51.742Z,1.56
2018-03-22T03:32:51.658Z,1.48
2018-03-22T03:33:51.576Z,1.23
2018-03-22T03:34:51.489Z,1.32
2018-03-22T03:35:51.407Z,1.25
2018-03-22T03:36:51.320Z,1.19
2018-03-22T03:37:51.234Z,1.08
2018-03-22T03:38:51.151Z,0.98
2018-03-22T03:39:51.068Z,0.92
2018-03-22T03:40:50.980Z,0.93
2018-03-22T03:41:50.901Z,0.90
2018-03-22T03:42:50.812Z,0.93
2018-03-22T03:43:50.727Z,0.98
2018-03-22T03:44:50.642Z,1.05
2018-03-22T03:45:50.556Z,0.98
2018-03-22T03:46:50.474Z,1.04
2018-03-22T03:47:50.387Z,1.01
2018-03-22T03:48:50.317Z,1.15
2018-03-22T03:49:50.218Z,1.15
2018-03-22T03:50:50.135Z,1.10
2018-03-22T03:51:50.050Z,1.18
2018-03-22T03:52:49.965Z,1.15
2018-03-22T03:53:49.880Z,1.16
2018-03-22T03:54:49.797Z,1.18
2018-03-22T03:55:49.710Z,1.32
2018-03-22T03:56:49.626Z,1.36
2018-03-22T03:57:49.543Z,1.41
2018-03-22T03:58:49.459Z,1.37
2018-03-22T03:59:49.374Z,1.38
2018-03-22T04:00:49.289Z,1.37
2018-03-22T04:01:49.206Z,1.41
2018-03-22T04:02:49.120Z,1.34
2018-03-22T04:03:49.039Z,1.32
2018-03-22T04:04:48.951Z,1.29
2018-03-22T04:05:48.867Z,1.46
2018-03-22T04:06:48.783Z,1.40
2018-03-22T04:07:48.698Z,1.41
2018-03-22T04:08:48.613Z,1.43
2018-03-22T04:09:48.534Z,1.44
2018-03-22T04:10:48.446Z,1.52
2018-03-22T04:11:48.359Z,1.52
2018-03-22T04:12:48.279Z,1.48
2018-03-22T04:13:48.191Z,1.54
2018-03-22T04:14:48.107Z,1.54
2018-03-22T04:15:48.023Z,1.54
2018-03-22T04:16:47.938Z,1.54
2018-03-22T04:17:47.854Z,1.52
2018-03-22T04:18:47.769Z,1.54
2018-03-22T04:19:47.685Z,1.66
2018-03-22T04:20:47.600Z,1.58
2018-03-22T04:21:47.515Z,1.58
2018-03-22T04:22:47.432Z,1.77
2018-03-22T04:23:47.347Z,1.66
2018-03-22T04:24:47.263Z,1.77
2018-03-22T04:25:47.178Z,1.69
2018-03-22T04:26:47.097Z,1.64
2018-03-22T04:27:47.012Z,1.69
2018-03-22T04:28:46.925Z,1.72
2018-03-22T04:29:46.842Z,1.72
2018-03-22T04:30:46.756Z,1.68
2018-03-22T04:31:46.673Z,1.76
2018-03-22T04:32:46.587Z,1.73
2018-03-22T04:33:46.504Z,1.73
2018-03-22T04:34:46.420Z,1.72
2018-03-22T04:35:46.393Z,1.73
2018-03-22T04:36:46.251Z,1.74
2018-03-22T04:37:46.166Z,1.73
2018-03-22T04:38:46.082Z,1.72
2018-03-22T04:39:45.997Z,1.79
2018-03-22T04:40:45.913Z,1.83
2018-03-22T04:41:45.830Z,1.72
2018-03-22T04:42:45.746Z,1.74
2018-03-22T04:43:45.661Z,1.77
2018-03-22T04:44:45.577Z,1.91
2018-03-22T04:45:45.493Z,1.90
2018-03-22T04:46:45.408Z,1.92
2018-03-22T04:47:45.323Z,1.87
2018-03-22T04:48:45.240Z,1.84
2018-03-22T04:49:45.156Z,1.76
2018-03-22T04:50:45.073Z,1.82
2018-03-22T04:51:44.991Z,1.87
2018-03-22T04:52:44.903Z,1.82
2018-03-22T04:53:44.824Z,1.80
2018-03-22T04:54:44.734Z,1.79
2018-03-22T04:55:44.651Z,1.74
2018-03-22T04:56:44.567Z,1.76
2018-03-22T04:57:44.482Z,1.76
2018-03-22T04:58:44.399Z,1.74
2018-03-22T04:59:44.313Z,1.77
2018-03-22T05:00:44.234Z,1.79
2018-03-22T05:01:44.145Z,1.74
2018-03-22T05:02:44.061Z,1.66
2018-03-22T05:03:43.980Z,1.68
2018-03-22T05:04:43.892Z,1.69
2018-03-22T05:05:43.809Z,1.69
2018-03-22T05:06:43.728Z,1.58
2018-03-22T05:07:43.641Z,1.54
2018-03-22T05:08:43.557Z,1.62
2018-03-22T05:09:43.473Z,1.59
2018-03-22T05:10:43.390Z,1.69
2018-03-22T05:11:43.305Z,1.61
2018-03-22T05:12:43.220Z,1.62
2018-03-22T05:13:43.137Z,1.62
2018-03-22T05:14:43.054Z,1.69
2018-03-22T05:15:42.975Z,1.65
2018-03-22T05:16:42.889Z,1.69
2018-03-22T05:17:42.800Z,1.69
2018-03-22T05:18:42.771Z,1.61
2018-03-22T05:19:42.633Z,1.68
2018-03-22T05:20:42.548Z,1.64
2018-03-22T05:21:42.463Z,1.62
2018-03-22T05:22:42.379Z,1.64
2018-03-22T05:23:42.295Z,1.64
2018-03-22T05:24:42.212Z,1.55
2018-03-22T05:25:42.128Z,1.61
2018-03-22T05:26:42.043Z,1.61
2018-03-22T05:27:41.957Z,1.52
2018-03-22T05:28:41.873Z,1.54
2018-03-22T05:29:41.788Z,1.54
2018-03-22T05:30:41.706Z,1.56
2018-03-22T05:31:41.920Z,1.68
2018-03-22T05:32:41.536Z,1.56
2018-03-22T05:33:41.451Z,1.61
2018-03-22T05:34:41.368Z,1.65
2018-03-22T05:35:41.282Z,1.55
2018-03-22T05:36:41.196Z,1.54
2018-03-22T05:37:41.113Z,1.50
2018-03-22T05:38:41.028Z,1.41
2018-03-22T05:39:40.946Z,1.52
2018-03-22T05:40:40.860Z,1.52
2018-03-22T05:41:40.774Z,1.55
2018-03-22T05:42:40.691Z,1.50
2018-03-22T05:43:40.605Z,1.54
2018-03-22T05:44:40.529Z,1.54
2018-03-22T05:45:40.438Z,1.50
2018-03-22T05:46:40.352Z,1.61
2018-03-22T05:47:40.267Z,1.56
2018-03-22T05:48:40.186Z,1.64
2018-03-22T05:49:40.099Z,1.65
2018-03-22T05:50:40.018Z,1.56
2018-03-22T05:51:39.930Z,1.73
2018-03-22T05:52:39.846Z,1.66
2018-03-22T05:53:39.762Z,1.77
2018-03-22T05:54:39.678Z,1.69
2018-03-22T05:55:39.593Z,1.76
2018-03-22T05:56:39.508Z,1.82
2018-03-22T05:57:39.425Z,1.74
2018-03-22T05:58:39.341Z,1.73
2018-03-22T05:59:39.256Z,1.77
2018-03-22T06:00:39.171Z,1.91
2018-03-22T06:01:39.088Z,1.82
2018-03-22T06:02:39.004Z,1.80
2018-03-22T06:03:38.918Z,1.90
2018-03-22T06:04:38.835Z,1.84
2018-03-22T06:05:38.751Z,1.86
2018-03-22T06:06:38.674Z,1.83
2018-03-22T06:07:38.582Z,1.84
2018-03-22T06:08:38.498Z,1.91
2018-03-22T06:09:38.429Z,1.86
2018-03-22T06:10:38.331Z,1.80
2018-03-22T06:11:38.246Z,1.84
2018-03-22T06:12:38.163Z,1.82
2018-03-22T06:13:38.076Z,1.82
2018-03-22T06:14:37.994Z,1.83
2018-03-22T06:15:37.909Z,1.98
2018-03-22T06:16:37.824Z,1.95
2018-03-22T06:17:37.741Z,1.98
2018-03-22T06:18:37.660Z,1.99
2018-03-22T06:19:37.573Z,2.01
2018-03-22T06:20:37.489Z,2.02
2018-03-22T06:21:37.404Z,2.03
2018-03-22T06:22:37.321Z,2.06
2018-03-22T06:23:37.235Z,2.05
2018-03-22T06:24:37.151Z,1.99
2018-03-22T06:25:37.068Z,1.84
2018-03-22T06:26:36.984Z,1.92
2018-03-22T06:27:36.900Z,1.86
2018-03-22T06:28:36.815Z,1.95
2018-03-22T06:29:36.732Z,1.98
2018-03-22T06:30:36.648Z,1.99
2018-03-22T06:31:36.563Z,2.01
2018-03-22T06:32:36.477Z,2.01
2018-03-22T06:33:36.395Z,2.03
2018-03-22T06:34:36.311Z,2.01
2018-03-22T06:35:36.226Z,2.10
2018-03-22T06:36:36.142Z,1.99
2018-03-22T06:37:36.057Z,2.02
2018-03-22T06:38:35.975Z,1.99
2018-03-22T06:39:35.890Z,2.16
2018-03-22T06:40:35.805Z,2.13
2018-03-22T06:41:35.722Z,2.17
2018-03-22T06:42:35.937Z,2.21
2018-03-22T06:43:35.553Z,2.24
2018-03-22T06:44:35.470Z,2.24
2018-03-22T06:45:35.385Z,2.24
2018-03-22T06:46:35.302Z,2.30
2018-03-22T06:47:35.218Z,2.26
2018-03-22T06:48:35.136Z,2.31
2018-03-22T06:49:35.104Z,2.37
2018-03-22T06:50:34.966Z,2.35
2018-03-22T06:51:34.882Z,2.28
2018-03-22T06:52:34.806Z,2.31
2018-03-22T06:53:34.716Z,2.39
2018-03-22T06:54:34.632Z,2.30
2018-03-22T06:55:34.546Z,2.26
2018-03-22T06:56:34.465Z,2.30
2018-03-22T06:57:34.426Z,2.32
2018-03-22T06:58:34.298Z,2.34
2018-03-22T06:59:34.216Z,2.41
2018-03-22T07:00:34.130Z,2.35
2018-03-22T07:01:34.047Z,2.38
2018-03-22T07:02:33.964Z,2.39
2018-03-22T07:03:33.879Z,2.42
2018-03-22T07:04:33.796Z,2.52
2018-03-22T07:05:33.712Z,2.34
2018-03-22T07:06:33.629Z,2.41
2018-03-22T07:07:33.546Z,2.48
2018-03-22T07:08:33.462Z,2.46
2018-03-22T07:09:33.381Z,2.35
2018-03-22T07:10:33.297Z,2.41
2018-03-22T07:11:33.211Z,2.31
2018-03-22T07:12:33.129Z,2.46
2018-03-22T07:13:33.047Z,2.41
2018-03-22T07:14:33.006Z,2.41
2018-03-22T07:15:32.881Z,2.44
2018-03-22T07:16:32.796Z,2.46
2018-03-22T07:17:32.713Z,2.53
2018-03-22T07:18:32.778Z,2.49
2018-03-22T07:19:32.544Z,2.41
2018-03-22T07:20:32.461Z,2.39
2018-03-22T07:21:32.378Z,2.50
2018-03-22T07:22:32.296Z,2.48
2018-03-22T07:23:32.211Z,2.50
2018-03-22T07:24:32.128Z,2.50
2018-03-22T07:25:32.072Z,2.52
2018-03-22T07:26:31.961Z,2.62
2018-03-22T07:27:31.878Z,2.73
2018-03-22T07:28:31.795Z,2.70
2018-03-22T07:29:31.712Z,2.71
2018-03-22T07:30:31.629Z,2.73
2018-03-22T07:31:31.545Z,2.63
2018-03-22T07:32:31.466Z,2.67
2018-03-22T07:33:31.380Z,2.52
2018-03-22T07:34:31.297Z,2.53
2018-03-22T07:35:31.214Z,2.66
2018-03-22T07:36:31.131Z,2.68
2018-03-22T07:37:31.048Z,2.73
2018-03-22T07:38:30.969Z,2.77
2018-03-22T07:39:30.881Z,2.81
2018-03-22T07:40:30.804Z,2.84
2018-03-22T07:41:30.716Z,2.88
2018-03-22T07:42:30.634Z,2.88
2018-03-22T07:43:30.548Z,2.91
2018-03-22T07:44:30.466Z,2.89
2018-03-22T07:45:30.385Z,2.89
2018-03-22T07:46:30.302Z,2.91
2018-03-22T07:47:30.220Z,2.86
2018-03-22T07:48:30.147Z,2.74
2018-03-22T07:49:30.056Z,2.78
2018-03-22T07:50:29.971Z,2.91
2018-03-22T07:51:29.886Z,2.92
2018-03-22T07:52:29.806Z,2.86
2018-03-22T07:53:29.722Z,2.91
2018-03-22T07:54:29.644Z,2.96
2018-03-22T07:55:29.557Z,2.96
2018-03-22T07:56:29.474Z,2.88
2018-03-22T07:57:29.392Z,2.88
2018-03-22T07:58:29.308Z,2.98
2018-03-22T07:59:29.226Z,2.88
2018-03-22T08:00:29.143Z,2.95
2018-03-22T08:01:29.061Z,2.96
2018-03-22T08:02:28.981Z,2.98
2018-03-22T08:03:28.895Z,3.11
2018-03-22T08:04:28.814Z,3.21
2018-03-22T08:05:28.730Z,3.11
2018-03-22T08:06:28.647Z,3.17
2018-03-22T08:07:28.565Z,3.31
2018-03-22T08:08:28.482Z,3.39
2018-03-22T08:09:28.401Z,3.43
2018-03-22T08:10:28.318Z,3.31
2018-03-22T08:11:28.234Z,3.39
2018-03-22T08:12:28.167Z,3.44
2018-03-22T08:13:28.070Z,3.47
2018-03-22T08:14:27.993Z,3.41
2018-03-22T08:15:27.906Z,3.65
2018-03-22T08:16:27.823Z,3.61
2018-03-22T08:17:27.741Z,3.61
2018-03-22T08:18:27.659Z,3.61
2018-03-22T08:19:27.577Z,3.64
2018-03-22T08:20:27.495Z,3.82
2018-03-22T08:21:27.414Z,3.68
2018-03-22T08:22:27.332Z,3.74
2018-03-22T08:23:27.250Z,3.89
2018-03-22T08:24:27.169Z,3.90
2018-03-22T08:25:27.086Z,4.02
2018-03-22T08:26:27.006Z,4.05
2018-03-22T08:27:26.923Z,3.86
2018-03-22T08:28:26.847Z,3.89
2018-03-22T08:29:26.760Z,3.90
2018-03-22T08:30:26.678Z,3.89
2018-03-22T08:31:26.597Z,3.97
2018-03-22T08:32:26.515Z,4.04
2018-03-22T08:33:26.435Z,3.97
2018-03-22T08:34:26.354Z,3.80
2018-03-22T08:35:26.270Z,3.66
2018-03-22T08:36:26.190Z,3.69
2018-03-22T08:37:26.111Z,3.82
2018-03-22T08:38:26.028Z,3.66
2018-03-22T08:39:25.946Z,3.64
2018-03-22T08:40:25.864Z,3.68
2018-03-22T08:41:25.798Z,3.62
2018-03-22T08:42:25.701Z,3.59
2018-03-22T08:43:25.620Z,3.64
2018-03-22T08:44:25.543Z,3.54
2018-03-22T08:45:25.457Z,3.39
2018-03-22T08:46:25.375Z,3.50
2018-03-22T08:47:25.293Z,3.54
2018-03-22T08:48:25.211Z,3.46
2018-03-22T08:49:25.131Z,3.48
2018-03-22T08:50:25.050Z,3.53
2018-03-22T08:51:24.966Z,3.48
2018-03-22T08:52:24.887Z,3.48
2018-03-22T08:53:24.803Z,3.44
2018-03-22T08:54:24.729Z,3.46
2018-03-22T08:55:24.641Z,3.43
2018-03-22T08:56:24.556Z,3.48
2018-03-22T08:57:24.475Z,3.50
2018-03-22T08:58:24.394Z,3.53
2018-03-22T08:59:24.311Z,3.51
2018-03-22T09:00:24.229Z,3.54
2018-03-22T09:01:24.148Z,3.54
2018-03-22T09:02:24.066Z,3.59
2018-03-22T09:03:23.983Z,3.59
2018-03-22T09:04:23.901Z,3.59
2018-03-22T09:05:23.817Z,3.69
2018-03-22T09:06:23.737Z,3.83
2018-03-22T09:07:23.655Z,3.83
2018-03-22T09:08:23.573Z,3.77
2018-03-22T09:09:23.496Z,3.69
2018-03-22T09:10:23.409Z,3.79
2018-03-22T09:11:23.327Z,3.86
2018-03-22T09:12:23.244Z,3.87
2018-03-22T09:13:23.163Z,3.84
2018-03-22T09:14:23.132Z,3.84
2018-03-22T09:15:22.999Z,3.86
2018-03-22T09:16:22.916Z,3.97
2018-03-22T09:17:22.836Z,4.01
2018-03-22T09:18:22.754Z,3.97
2018-03-22T09:19:22.671Z,4.10
2018-03-22T09:20:22.589Z,3.86
2018-03-22T09:21:22.509Z,3.69
2018-03-22T09:22:22.461Z,3.80
2018-03-22T09:23:22.345Z,3.77
2018-03-22T09:24:22.262Z,3.74
2018-03-22T09:25:22.181Z,3.75
2018-03-22T09:26:22.099Z,3.72
2018-03-22T09:27:22.016Z,3.75
2018-03-22T09:28:21.934Z,3.66
2018-03-22T09:29:21.853Z,3.51
2018-03-22T09:30:21.771Z,3.46
2018-03-22T09:31:21.688Z,3.32
2018-03-22T09:32:21.607Z,3.17
2018-03-22T09:33:21.525Z,3.14
2018-03-22T09:34:21.445Z,3.17
2018-03-22T09:35:21.361Z,2.98
2018-03-22T09:36:21.278Z,3.01
2018-03-22T09:37:21.198Z,2.98
2018-03-22T09:38:21.115Z,3.07
2018-03-22T09:39:21.032Z,2.98
2018-03-22T09:40:20.949Z,2.85
2018-03-22T09:41:20.868Z,2.91
2018-03-22T09:42:20.785Z,2.75
2018-03-22T09:43:20.704Z,2.73
2018-03-22T09:44:20.623Z,2.68
2018-03-22T09:45:20.539Z,2.80
2018-03-22T09:46:20.456Z,2.77
2018-03-22T09:47:20.373Z,2.86
2018-03-22T09:48:20.290Z,2.86
2018-03-22T09:49:20.209Z,2.73
2018-03-22T09:50:20.126Z,2.67
2018-03-22T09:51:20.049Z,2.66
2018-03-22T09:52:19.961Z,2.74
2018-03-22T09:53:19.882Z,2.91
2018-03-22T09:54:19.796Z,2.81
2018-03-22T09:55:19.715Z,2.84
2018-03-22T09:56:19.629Z,2.80
2018-03-22T09:57:19.548Z,2.78
2018-03-22T09:58:19.465Z,2.89
2018-03-22T09:59:19.382Z,2.91
2018-03-22T10:00:19.300Z,2.85
2018-03-22T10:01:19.218Z,2.84
2018-03-22T10:02:19.135Z,2.85
2018-03-22T10:03:19.052Z,3.01
2018-03-22T10:04:18.970Z,2.98
2018-03-22T10:05:18.887Z,3.01
2018-03-22T10:06:18.805Z,3.07
2018-03-22T10:07:18.722Z,3.14
2018-03-22T10:08:18.640Z,3.14
2018-03-22T10:09:18.558Z,3.14
2018-03-22T10:10:18.475Z,3.22
2018-03-22T10:11:18.392Z,3.21
2018-03-22T10:12:18.309Z,3.19
2018-03-22T10:13:18.226Z,3.21
2018-03-22T10:14:18.149Z,3.16
2018-03-22T10:15:18.063Z,2.99
2018-03-22T10:16:18.024Z,3.03
2018-03-22T10:17:17.899Z,3.07
2018-03-22T10:18:17.817Z,3.06
2018-03-22T10:19:17.735Z,2.98
2018-03-22T10:20:17.651Z,3.04
2018-03-22T10:21:17.571Z,3.06
2018-03-22T10:22:17.489Z,3.07
2018-03-22T10:23:17.406Z,2.70
2018-03-22T10:24:17.324Z,2.42
2018-03-22T10:25:17.243Z,2.31
2018-03-22T10:26:17.161Z,2.35
2018-03-22T10:27:17.078Z,2.32
2018-03-22T10:28:16.999Z,2.46
2018-03-22T10:29:16.913Z,2.49
2018-03-22T10:30:16.830Z,2.44
2018-03-22T10:31:16.750Z,2.41
2018-03-22T10:32:16.666Z,2.46
2018-03-22T10:33:16.584Z,2.50
2018-03-22T10:34:16.501Z,2.74
2018-03-22T10:35:16.418Z,2.71
2018-03-22T10:36:16.336Z,2.66
2018-03-22T10:37:16.253Z,2.91
2018-03-22T10:38:16.180Z,2.75
2018-03-22T10:39:16.087Z,2.71
2018-03-22T10:40:16.006Z,2.62
2018-03-22T10:41:15.924Z,2.48
2018-03-22T10:42:15.847Z,2.50
2018-03-22T10:43:15.758Z,2.55
2018-03-22T10:44:15.676Z,2.56
2018-03-22T10:45:15.595Z,2.73
2018-03-22T10:46:15.511Z,2.78
2018-03-22T10:47:15.429Z,2.80
2018-03-22T10:48:15.347Z,2.81
2018-03-22T10:49:15.266Z,2.80
2018-03-22T10:50:15.183Z,2.68
2018-03-22T10:51:15.099Z,2.67
2018-03-22T10:52:15.016Z,2.68
2018-03-22T10:53:14.935Z,2.71
2018-03-22T10:54:14.852Z,2.75
2018-03-22T10:55:14.769Z,2.68
2018-03-22T10:56:14.687Z,2.63
2018-03-22T10:57:14.605Z,2.92
2018-03-22T10:58:14.523Z,2.99
2018-03-22T10:59:14.438Z,2.95
2018-03-22T11:00:14.356Z,2.92
2018-03-22T11:01:14.275Z,2.62
2018-03-22T11:02:14.192Z,2.48
2018-03-22T11:03:14.110Z,2.35
2018-03-22T11:04:14.026Z,2.48
2018-03-22T11:05:13.944Z,2.42
2018-03-22T11:06:13.862Z,2.52
2018-03-22T11:07:13.778Z,2.42
2018-03-22T11:08:13.695Z,2.46
2018-03-22T11:09:13.613Z,2.44
2018-03-22T11:10:13.530Z,2.46
2018-03-22T11:11:13.448Z,2.39
2018-03-22T11:12:13.365Z,2.32
2018-03-22T11:13:13.284Z,2.48
2018-03-22T11:14:13.199Z,2.34
2018-03-22T11:15:13.115Z,2.46
2018-03-22T11:16:13.034Z,2.50
2018-03-22T11:17:12.950Z,2.49
2018-03-22T11:18:12.868Z,2.48
2018-03-22T11:19:12.784Z,2.66
2018-03-22T11:20:12.704Z,2.70
2018-03-22T11:21:12.619Z,2.74
2018-03-22T11:22:12.537Z,2.84
2018-03-22T11:23:12.453Z,2.75
2018-03-22T11:24:12.369Z,2.92
2018-03-22T11:25:12.288Z,2.95
2018-03-22T11:26:12.204Z,2.78
2018-03-22T11:27:12.121Z,2.70
2018-03-22T11:28:12.040Z,2.52
2018-03-22T11:29:11.956Z,2.55
2018-03-22T11:30:11.873Z,2.70
2018-03-22T11:31:11.790Z,2.63
2018-03-22T11:32:11.708Z,2.68
2018-03-22T11:33:11.626Z,2.74
2018-03-22T11:34:11.542Z,2.73
2018-03-22T11:35:11.458Z,2.75
2018-03-22T11:36:11.376Z,2.84
2018-03-22T11:37:11.293Z,2.81
2018-03-22T11:38:11.211Z,2.71
2018-03-22T11:39:11.128Z,2.74
2018-03-22T11:40:11.046Z,2.66
2018-03-22T11:41:10.962Z,2.80
2018-03-22T11:42:10.881Z,2.89
2018-03-22T11:43:10.797Z,2.95
2018-03-22T11:44:10.714Z,2.95
2018-03-22T11:45:10.631Z,2.88
2018-03-22T11:46:10.549Z,2.98
2018-03-22T11:47:10.467Z,2.99
2018-03-22T11:48:10.383Z,3.04
2018-03-22T11:49:10.300Z,3.03
2018-03-22T11:50:10.218Z,3.01
2018-03-22T11:51:10.135Z,3.01
2018-03-22T11:52:10.053Z,2.99
2018-03-22T11:53:09.970Z,3.06
2018-03-22T11:54:09.887Z,3.07
2018-03-22T11:55:09.810Z,2.99
2018-03-22T11:56:09.723Z,3.04
2018-03-22T11:57:09.640Z,2.95
2018-03-22T11:58:09.558Z,2.99
2018-03-22T11:59:09.486Z,2.99
2018-03-22T12:00:09.393Z,3.07
2018-03-22T12:01:09.310Z,3.04
2018-03-22T12:02:09.228Z,3.07
2018-03-22T12:03:09.143Z,3.10
2018-03-22T12:04:09.062Z,3.13
2018-03-22T12:05:08.980Z,3.03
2018-03-22T12:06:08.897Z,2.99
2018-03-22T12:07:08.815Z,2.88
2018-03-22T12:08:08.732Z,2.88
2018-03-22T12:09:08.650Z,2.88
2018-03-22T12:10:08.569Z,2.88
2018-03-22T12:11:08.501Z,3.01
2018-03-22T12:12:08.402Z,2.89
2018-03-22T12:13:08.320Z,2.99
2018-03-22T12:14:08.238Z,2.91
2018-03-22T12:15:08.154Z,2.95
2018-03-22T12:16:08.079Z,2.95
2018-03-22T12:17:07.991Z,2.86
2018-03-22T12:18:07.906Z,2.85
2018-03-22T12:19:07.823Z,2.93
2018-03-22T12:20:07.739Z,2.81
2018-03-22T12:21:07.659Z,2.80
2018-03-22T12:22:07.576Z,2.74
2018-03-22T12:23:07.492Z,2.70
2018-03-22T12:24:07.414Z,2.55
2018-03-22T12:25:07.327Z,2.50
2018-03-22T12:26:07.245Z,2.55
2018-03-22T12:27:07.161Z,2.46
2018-03-22T12:28:07.079Z,2.49
2018-03-22T12:29:06.996Z,2.46
2018-03-22T12:30:06.912Z,2.56
2018-03-22T12:31:06.831Z,2.46
2018-03-22T12:32:06.746Z,2.50
2018-03-22T12:33:06.663Z,2.63
2018-03-22T12:34:06.581Z,2.67
2018-03-22T12:35:06.496Z,2.70
2018-03-22T12:36:06.413Z,2.66
2018-03-22T12:37:06.330Z,2.71
2018-03-22T12:38:06.247Z,2.56
2018-03-22T12:39:06.163Z,2.49
2018-03-22T12:40:06.079Z,2.44
2018-03-22T12:41:05.998Z,2.35
2018-03-22T12:42:05.914Z,2.37
2018-03-22T12:43:05.829Z,2.42
2018-03-22T12:44:05.749Z,2.46
2018-03-22T12:45:05.663Z,2.41
2018-03-22T12:46:05.580Z,2.52
2018-03-22T12:47:05.495Z,2.49
2018-03-22T12:48:05.420Z,2.44
2018-03-22T12:49:05.330Z,2.52
2018-03-22T12:50:05.246Z,2.60
2018-03-22T12:51:05.162Z,2.57
2018-03-22T12:52:05.078Z,2.56
2018-03-22T12:53:04.996Z,2.60
2018-03-22T12:54:04.912Z,2.52
2018-03-22T12:55:04.827Z,2.42
2018-03-22T12:56:04.744Z,2.66
2018-03-22T12:57:04.661Z,2.57
2018-03-22T12:58:04.577Z,2.63
2018-03-22T12:59:04.493Z,2.63
2018-03-22T13:00:04.442Z,2.59
2018-03-22T13:01:04.327Z,2.50
2018-03-22T13:02:04.244Z,2.44
2018-03-22T13:03:04.159Z,2.48
2018-03-22T13:04:04.075Z,2.50
2018-03-22T13:05:03.993Z,2.60
2018-03-22T13:06:03.913Z,2.57
2018-03-22T13:07:03.824Z,2.44
2018-03-22T13:08:03.741Z,2.44
2018-03-22T13:09:03.658Z,2.49
2018-03-22T13:10:03.575Z,2.55
2018-03-22T13:11:03.491Z,2.52